sensor_id;sensor_type;location;lat;lon;timestamp;P1;durP1;ratioP1;P2;durP2;ratioP2
1014;SDS011;8170;48.118;11.628;2023-02-28T00:00:13;5.18;;;3.90;;
1014;SDS011;8170;48.118;11.628;2023-02-28T00:01:22;5.00;;;3.63;;
1014;SDS011;8170;48.118;11.628;2023-02-28T00:02:32;7.13;;;4.65;;
1014;SDS011;8170;48.118;11.628;2023-02-28T00:03:44;7.47;;;4.13;;
1014;SDS011;8170;48.118;11.628;2023-02-28T00:04:56;5.40;;;4.10;;
1014;SDS011;8170;48.118;11.628;2023-02-28T00:06:09;5.35;;;4.30;;
1014;SDS011;8170;48.118;11.628;2023-02-28T00:07:23;6.32;;;4.50;;
1014;SDS011;8170;48.118;11.628;2023-02-28T00:08:27;5.70;;;3.80;;
1014;SDS011;8170;48.118;11.628;2023-02-28T00:09:52;6.85;;;4.50;;
1014;SDS011;8170;48.118;11.628;2023-02-28T00:11:19;4.85;;;4.20;;
1014;SDS011;8170;48.118;11.628;2023-02-28T00:13:47;5.50;;;4.45;;
1014;SDS011;8170;48.118;11.628;2023-02-28T00:16:18;5.65;;;3.97;;
1014;SDS011;8170;48.118;11.628;2023-02-28T00:17:35;5.10;;;3.92;;
1014;SDS011;8170;48.118;11.628;2023-02-28T00:19:26;6.35;;;3.83;;
1014;SDS011;8170;48.118;11.628;2023-02-28T00:21:05;7.40;;;4.65;;
1014;SDS011;8170;48.118;11.628;2023-02-28T00:22:47;5.90;;;4.25;;
1014;SDS011;8170;48.118;11.628;2023-02-28T00:24:39;5.60;;;4.60;;
1014;SDS011;8170;48.118;11.628;2023-02-28T00:26:41;5.03;;;4.15;;
1014;SDS011;8170;48.118;11.628;2023-02-28T00:28:37;4.50;;;3.92;;
1014;SDS011;8170;48.118;11.628;2023-02-28T00:30:10;6.38;;;4.70;;
1014;SDS011;8170;48.118;11.628;2023-02-28T00:31:50;8.38;;;3.75;;
1014;SDS011;8170;48.118;11.628;2023-02-28T00:33:21;4.70;;;3.88;;
1014;SDS011;8170;48.118;11.628;2023-02-28T00:34:59;6.30;;;4.88;;
1014;SDS011;8170;48.118;11.628;2023-02-28T00:36:29;6.43;;;4.28;;
1014;SDS011;8170;48.118;11.628;2023-02-28T00:40:08;4.78;;;4.20;;
1014;SDS011;8170;48.118;11.628;2023-02-28T00:47:25;8.43;;;4.90;;
1014;SDS011;8170;48.118;11.628;2023-02-28T00:50:09;6.85;;;4.70;;
1014;SDS011;8170;48.118;11.628;2023-02-28T00:55:17;5.97;;;4.22;;
1014;SDS011;8170;48.118;11.628;2023-02-28T00:57:48;7.05;;;3.80;;
1014;SDS011;8170;48.118;11.628;2023-02-28T01:01:17;6.35;;;4.13;;
1014;SDS011;8170;48.118;11.628;2023-02-28T01:02:48;5.45;;;4.50;;
1014;SDS011;8170;48.118;11.628;2023-02-28T01:07:15;6.25;;;4.85;;
1014;SDS011;8170;48.118;11.628;2023-02-28T01:09:29;4.70;;;3.90;;
1014;SDS011;8170;48.118;11.628;2023-02-28T01:11:11;5.10;;;4.32;;
1014;SDS011;8170;48.118;11.628;2023-02-28T01:14:08;5.85;;;4.35;;
1014;SDS011;8170;48.118;11.628;2023-02-28T01:23:55;5.85;;;4.70;;
1014;SDS011;8170;48.118;11.628;2023-02-28T01:25:40;6.10;;;4.45;;
1014;SDS011;8170;48.118;11.628;2023-02-28T01:27:07;6.50;;;4.85;;
1014;SDS011;8170;48.118;11.628;2023-02-28T01:29:23;8.32;;;4.10;;
1014;SDS011;8170;48.118;11.628;2023-02-28T01:30:58;7.85;;;5.10;;
1014;SDS011;8170;48.118;11.628;2023-02-28T01:32:28;6.70;;;5.35;;
1014;SDS011;8170;48.118;11.628;2023-02-28T01:34:27;6.75;;;4.72;;
1014;SDS011;8170;48.118;11.628;2023-02-28T01:38:57;6.00;;;4.43;;
1014;SDS011;8170;48.118;11.628;2023-02-28T01:40:16;4.75;;;3.97;;
1014;SDS011;8170;48.118;11.628;2023-02-28T01:41:47;6.15;;;3.88;;
1014;SDS011;8170;48.118;11.628;2023-02-28T01:43:19;6.30;;;4.68;;
1014;SDS011;8170;48.118;11.628;2023-02-28T01:47:18;4.90;;;4.40;;
1014;SDS011;8170;48.118;11.628;2023-02-28T01:49:16;7.90;;;5.20;;
1014;SDS011;8170;48.118;11.628;2023-02-28T01:50:58;6.40;;;4.60;;
1014;SDS011;8170;48.118;11.628;2023-02-28T01:54:58;6.90;;;4.88;;
1014;SDS011;8170;48.118;11.628;2023-02-28T01:59:40;6.22;;;4.80;;
1014;SDS011;8170;48.118;11.628;2023-02-28T02:03:36;7.47;;;5.20;;
1014;SDS011;8170;48.118;11.628;2023-02-28T02:04:49;7.20;;;5.40;;
1014;SDS011;8170;48.118;11.628;2023-02-28T02:06:19;6.70;;;5.03;;
1014;SDS011;8170;48.118;11.628;2023-02-28T02:08:28;7.85;;;4.47;;
1014;SDS011;8170;48.118;11.628;2023-02-28T02:10:18;5.55;;;4.80;;
1014;SDS011;8170;48.118;11.628;2023-02-28T02:13:39;8.43;;;4.93;;
1014;SDS011;8170;48.118;11.628;2023-02-28T02:16:09;6.65;;;4.78;;
1014;SDS011;8170;48.118;11.628;2023-02-28T02:17:38;8.07;;;4.78;;
1014;SDS011;8170;48.118;11.628;2023-02-28T02:19:07;8.93;;;5.05;;
1014;SDS011;8170;48.118;11.628;2023-02-28T02:25:58;5.78;;;4.35;;
1014;SDS011;8170;48.118;11.628;2023-02-28T02:35:59;5.72;;;4.60;;
1014;SDS011;8170;48.118;11.628;2023-02-28T02:37:25;7.13;;;5.00;;
1014;SDS011;8170;48.118;11.628;2023-02-28T02:39:29;7.18;;;5.25;;
1014;SDS011;8170;48.118;11.628;2023-02-28T02:41:08;7.78;;;5.25;;
1014;SDS011;8170;48.118;11.628;2023-02-28T02:42:56;8.30;;;5.60;;
1014;SDS011;8170;48.118;11.628;2023-02-28T04:14:36;10.38;;;7.43;;
1014;SDS011;8170;48.118;11.628;2023-02-28T04:15:40;12.98;;;8.55;;
1014;SDS011;8170;48.118;11.628;2023-02-28T04:18:38;10.98;;;7.47;;
1014;SDS011;8170;48.118;11.628;2023-02-28T04:20:00;12.40;;;7.85;;
1014;SDS011;8170;48.118;11.628;2023-02-28T04:21:29;10.45;;;8.18;;
1014;SDS011;8170;48.118;11.628;2023-02-28T04:23:27;11.07;;;8.32;;
1014;SDS011;8170;48.118;11.628;2023-02-28T04:24:58;12.63;;;8.98;;
1014;SDS011;8170;48.118;11.628;2023-02-28T04:26:18;10.05;;;7.80;;
1014;SDS011;8170;48.118;11.628;2023-02-28T04:27:28;11.05;;;8.32;;
1014;SDS011;8170;48.118;11.628;2023-02-28T04:29:10;11.43;;;8.80;;
1014;SDS011;8170;48.118;11.628;2023-02-28T04:30:57;15.70;;;8.55;;
1014;SDS011;8170;48.118;11.628;2023-02-28T04:32:19;10.90;;;7.80;;
1014;SDS011;8170;48.118;11.628;2023-02-28T04:33:38;13.15;;;8.85;;
1014;SDS011;8170;48.118;11.628;2023-02-28T04:34:58;11.48;;;8.63;;
1014;SDS011;8170;48.118;11.628;2023-02-28T04:37:57;12.85;;;8.90;;
1014;SDS011;8170;48.118;11.628;2023-02-28T04:39:49;12.77;;;9.98;;
1014;SDS011;8170;48.118;11.628;2023-02-28T04:41:37;11.80;;;7.95;;
1014;SDS011;8170;48.118;11.628;2023-02-28T04:44:27;11.98;;;9.27;;
1014;SDS011;8170;48.118;11.628;2023-02-28T04:47:48;13.18;;;9.32;;
1014;SDS011;8170;48.118;11.628;2023-02-28T04:49:17;10.73;;;8.75;;
1014;SDS011;8170;48.118;11.628;2023-02-28T04:51:59;12.05;;;8.90;;
1014;SDS011;8170;48.118;11.628;2023-02-28T04:53:29;12.75;;;8.73;;
1014;SDS011;8170;48.118;11.628;2023-02-28T04:55:28;10.68;;;8.50;;
1014;SDS011;8170;48.118;11.628;2023-02-28T04:57:06;13.68;;;9.60;;
1014;SDS011;8170;48.118;11.628;2023-02-28T04:59:08;15.90;;;8.70;;
1014;SDS011;8170;48.118;11.628;2023-02-28T05:01:20;11.27;;;8.60;;
1014;SDS011;8170;48.118;11.628;2023-02-28T05:05:48;15.15;;;10.25;;
1014;SDS011;8170;48.118;11.628;2023-02-28T05:07:18;14.93;;;10.60;;
1014;SDS011;8170;48.118;11.628;2023-02-28T05:09:24;13.55;;;9.32;;
1014;SDS011;8170;48.118;11.628;2023-02-28T05:24:40;16.98;;;11.10;;
1014;SDS011;8170;48.118;11.628;2023-02-28T05:27:08;15.93;;;11.68;;
1014;SDS011;8170;48.118;11.628;2023-02-28T05:30:13;15.38;;;10.20;;
1014;SDS011;8170;48.118;11.628;2023-02-28T05:34:17;16.98;;;12.10;;
1014;SDS011;8170;48.118;11.628;2023-02-28T05:35:54;15.15;;;11.98;;
1014;SDS011;8170;48.118;11.628;2023-02-28T05:38:09;18.13;;;11.43;;
1014;SDS011;8170;48.118;11.628;2023-02-28T05:40:46;16.45;;;10.05;;
1014;SDS011;8170;48.118;11.628;2023-02-28T05:42:17;19.45;;;13.48;;
1014;SDS011;8170;48.118;11.628;2023-02-28T05:43:58;17.10;;;11.40;;
1014;SDS011;8170;48.118;11.628;2023-02-28T05:45:57;18.88;;;12.68;;
1014;SDS011;8170;48.118;11.628;2023-02-28T05:47:55;19.60;;;13.00;;
1014;SDS011;8170;48.118;11.628;2023-02-28T05:49:43;16.05;;;12.48;;
1014;SDS011;8170;48.118;11.628;2023-02-28T05:51:29;17.55;;;11.93;;
1014;SDS011;8170;48.118;11.628;2023-02-28T06:02:11;17.50;;;12.50;;
1014;SDS011;8170;48.118;11.628;2023-02-28T06:05:46;18.80;;;14.00;;
1014;SDS011;8170;48.118;11.628;2023-02-28T06:07:48;21.52;;;14.18;;
1014;SDS011;8170;48.118;11.628;2023-02-28T06:09:09;19.23;;;14.10;;
1014;SDS011;8170;48.118;11.628;2023-02-28T06:10:38;19.02;;;13.75;;
1014;SDS011;8170;48.118;11.628;2023-02-28T06:11:57;18.65;;;12.88;;
1014;SDS011;8170;48.118;11.628;2023-02-28T06:13:18;21.40;;;14.20;;
1014;SDS011;8170;48.118;11.628;2023-02-28T06:15:00;20.55;;;14.05;;
1014;SDS011;8170;48.118;11.628;2023-02-28T06:16:21;20.55;;;14.18;;
1014;SDS011;8170;48.118;11.628;2023-02-28T06:21:10;20.20;;;13.65;;
1014;SDS011;8170;48.118;11.628;2023-02-28T06:22:58;21.45;;;14.38;;
1014;SDS011;8170;48.118;11.628;2023-02-28T06:24:18;20.45;;;14.65;;
1014;SDS011;8170;48.118;11.628;2023-02-28T06:26:34;23.20;;;14.73;;
1014;SDS011;8170;48.118;11.628;2023-02-28T06:29:31;20.15;;;14.23;;
1014;SDS011;8170;48.118;11.628;2023-02-28T06:34:47;22.00;;;15.02;;
1014;SDS011;8170;48.118;11.628;2023-02-28T06:39:39;20.42;;;13.65;;
1014;SDS011;8170;48.118;11.628;2023-02-28T06:41:00;21.52;;;15.10;;
1014;SDS011;8170;48.118;11.628;2023-02-28T06:42:38;18.52;;;14.02;;
1014;SDS011;8170;48.118;11.628;2023-02-28T06:45:59;21.17;;;14.45;;
1014;SDS011;8170;48.118;11.628;2023-02-28T07:22:47;22.27;;;16.57;;
1014;SDS011;8170;48.118;11.628;2023-02-28T07:24:35;18.58;;;14.90;;
1014;SDS011;8170;48.118;11.628;2023-02-28T07:26:51;24.50;;;16.35;;
1014;SDS011;8170;48.118;11.628;2023-02-28T07:28:23;22.55;;;15.80;;
1014;SDS011;8170;48.118;11.628;2023-02-28T07:29:56;23.00;;;15.90;;
1014;SDS011;8170;48.118;11.628;2023-02-28T07:31:37;21.15;;;14.38;;
1014;SDS011;8170;48.118;11.628;2023-02-28T07:33:21;27.02;;;16.17;;
1014;SDS011;8170;48.118;11.628;2023-02-28T07:35:19;22.77;;;15.88;;
1014;SDS011;8170;48.118;11.628;2023-02-28T07:37:37;24.20;;;17.10;;
1014;SDS011;8170;48.118;11.628;2023-02-28T07:42:44;21.55;;;14.93;;
1014;SDS011;8170;48.118;11.628;2023-02-28T07:44:28;21.33;;;15.32;;
1014;SDS011;8170;48.118;11.628;2023-02-28T07:47:00;22.55;;;16.95;;
1014;SDS011;8170;48.118;11.628;2023-02-28T07:48:14;24.35;;;16.75;;
1014;SDS011;8170;48.118;11.628;2023-02-28T07:49:50;23.88;;;16.88;;
1014;SDS011;8170;48.118;11.628;2023-02-28T07:55:21;25.73;;;17.65;;
1014;SDS011;8170;48.118;11.628;2023-02-28T07:57:14;20.27;;;16.25;;
1014;SDS011;8170;48.118;11.628;2023-02-28T07:59:02;23.00;;;17.73;;
1014;SDS011;8170;48.118;11.628;2023-02-28T08:04:13;22.05;;;15.65;;
1014;SDS011;8170;48.118;11.628;2023-02-28T08:06:01;24.65;;;16.10;;
1014;SDS011;8170;48.118;11.628;2023-02-28T08:07:41;24.05;;;16.65;;
1014;SDS011;8170;48.118;11.628;2023-02-28T08:09:47;22.58;;;15.10;;
1014;SDS011;8170;48.118;11.628;2023-02-28T08:11:25;23.65;;;15.68;;
1014;SDS011;8170;48.118;11.628;2023-02-28T08:12:57;21.05;;;16.52;;
1014;SDS011;8170;48.118;11.628;2023-02-28T08:14:24;21.52;;;15.80;;
1014;SDS011;8170;48.118;11.628;2023-02-28T08:16:01;23.27;;;17.58;;
1014;SDS011;8170;48.118;11.628;2023-02-28T08:17:33;19.55;;;15.15;;
1014;SDS011;8170;48.118;11.628;2023-02-28T08:20:39;23.67;;;16.27;;
1014;SDS011;8170;48.118;11.628;2023-02-28T08:22:00;23.90;;;16.25;;
1014;SDS011;8170;48.118;11.628;2023-02-28T08:23:21;21.00;;;16.30;;
1014;SDS011;8170;48.118;11.628;2023-02-28T08:24:40;21.08;;;16.50;;
1014;SDS011;8170;48.118;11.628;2023-02-28T08:25:56;19.27;;;15.23;;
1014;SDS011;8170;48.118;11.628;2023-02-28T08:27:06;20.83;;;17.13;;
1014;SDS011;8170;48.118;11.628;2023-02-28T08:28:17;20.60;;;16.52;;
1014;SDS011;8170;48.118;11.628;2023-02-28T08:29:19;24.67;;;17.83;;
1014;SDS011;8170;48.118;11.628;2023-02-28T08:30:38;22.10;;;16.02;;
1014;SDS011;8170;48.118;11.628;2023-02-28T08:31:45;19.02;;;16.00;;
1014;SDS011;8170;48.118;11.628;2023-02-28T08:32:48;19.42;;;15.57;;
1014;SDS011;8170;48.118;11.628;2023-02-28T08:33:51;22.05;;;16.20;;
1014;SDS011;8170;48.118;11.628;2023-02-28T08:34:54;19.05;;;15.93;;
1014;SDS011;8170;48.118;11.628;2023-02-28T08:35:57;21.10;;;17.10;;
1014;SDS011;8170;48.118;11.628;2023-02-28T08:37:01;21.17;;;15.50;;
1014;SDS011;8170;48.118;11.628;2023-02-28T08:38:04;20.33;;;16.40;;
1014;SDS011;8170;48.118;11.628;2023-02-28T08:39:08;22.80;;;17.80;;
1014;SDS011;8170;48.118;11.628;2023-02-28T08:40:12;22.38;;;16.42;;
1014;SDS011;8170;48.118;11.628;2023-02-28T08:41:27;18.67;;;15.85;;
1014;SDS011;8170;48.118;11.628;2023-02-28T08:42:33;20.02;;;16.27;;
1014;SDS011;8170;48.118;11.628;2023-02-28T08:43:39;19.00;;;15.80;;
1014;SDS011;8170;48.118;11.628;2023-02-28T08:44:43;21.98;;;17.52;;
1014;SDS011;8170;48.118;11.628;2023-02-28T08:45:46;21.05;;;16.48;;
1014;SDS011;8170;48.118;11.628;2023-02-28T08:46:49;22.30;;;17.27;;
1014;SDS011;8170;48.118;11.628;2023-02-28T08:47:53;20.83;;;16.55;;
1014;SDS011;8170;48.118;11.628;2023-02-28T08:48:56;21.23;;;17.67;;
1014;SDS011;8170;48.118;11.628;2023-02-28T08:50:03;22.38;;;17.90;;
1014;SDS011;8170;48.118;11.628;2023-02-28T08:51:08;25.90;;;17.95;;
1014;SDS011;8170;48.118;11.628;2023-02-28T08:52:15;21.73;;;15.90;;
1014;SDS011;8170;48.118;11.628;2023-02-28T08:53:24;22.23;;;15.52;;
1014;SDS011;8170;48.118;11.628;2023-02-28T08:54:29;19.60;;;16.90;;
1014;SDS011;8170;48.118;11.628;2023-02-28T08:55:38;20.48;;;16.55;;
1014;SDS011;8170;48.118;11.628;2023-02-28T08:56:43;20.77;;;17.25;;
1014;SDS011;8170;48.118;11.628;2023-02-28T08:57:49;21.65;;;16.45;;
1014;SDS011;8170;48.118;11.628;2023-02-28T08:58:55;20.80;;;15.75;;
1014;SDS011;8170;48.118;11.628;2023-02-28T09:00:02;20.33;;;16.42;;
1014;SDS011;8170;48.118;11.628;2023-02-28T09:01:09;21.15;;;15.95;;
1014;SDS011;8170;48.118;11.628;2023-02-28T09:02:15;21.30;;;16.27;;
1014;SDS011;8170;48.118;11.628;2023-02-28T09:03:21;22.98;;;17.20;;
1014;SDS011;8170;48.118;11.628;2023-02-28T09:04:26;21.83;;;15.52;;
1014;SDS011;8170;48.118;11.628;2023-02-28T09:05:36;21.15;;;16.83;;
1014;SDS011;8170;48.118;11.628;2023-02-28T09:06:41;18.60;;;15.05;;
1014;SDS011;8170;48.118;11.628;2023-02-28T09:07:49;20.08;;;16.15;;
1014;SDS011;8170;48.118;11.628;2023-02-28T09:08:56;23.63;;;16.15;;
1014;SDS011;8170;48.118;11.628;2023-02-28T09:10:00;23.65;;;16.48;;
1014;SDS011;8170;48.118;11.628;2023-02-28T09:11:07;19.85;;;15.50;;
1014;SDS011;8170;48.118;11.628;2023-02-28T09:12:10;20.38;;;15.77;;
1014;SDS011;8170;48.118;11.628;2023-02-28T09:13:15;18.50;;;13.93;;
1014;SDS011;8170;48.118;11.628;2023-02-28T09:14:18;20.58;;;16.45;;
1014;SDS011;8170;48.118;11.628;2023-02-28T09:15:21;20.27;;;16.20;;
1014;SDS011;8170;48.118;11.628;2023-02-28T09:16:25;20.33;;;16.50;;
1014;SDS011;8170;48.118;11.628;2023-02-28T09:17:29;22.25;;;16.55;;
1014;SDS011;8170;48.118;11.628;2023-02-28T09:18:36;23.70;;;15.90;;
1014;SDS011;8170;48.118;11.628;2023-02-28T09:19:39;21.45;;;17.40;;
1014;SDS011;8170;48.118;11.628;2023-02-28T09:20:44;22.30;;;17.33;;
1014;SDS011;8170;48.118;11.628;2023-02-28T09:21:47;23.20;;;17.55;;
1014;SDS011;8170;48.118;11.628;2023-02-28T09:22:54;21.17;;;15.73;;
1014;SDS011;8170;48.118;11.628;2023-02-28T09:24:00;22.17;;;17.23;;
1014;SDS011;8170;48.118;11.628;2023-02-28T09:25:25;22.88;;;16.25;;
1014;SDS011;8170;48.118;11.628;2023-02-28T09:26:31;19.42;;;16.60;;
1014;SDS011;8170;48.118;11.628;2023-02-28T09:27:47;20.10;;;15.57;;
1014;SDS011;8170;48.118;11.628;2023-02-28T09:28:52;22.13;;;17.05;;
1014;SDS011;8170;48.118;11.628;2023-02-28T09:29:55;27.17;;;18.60;;
1014;SDS011;8170;48.118;11.628;2023-02-28T09:30:58;26.70;;;17.95;;
1014;SDS011;8170;48.118;11.628;2023-02-28T09:32:01;20.65;;;16.50;;
1014;SDS011;8170;48.118;11.628;2023-02-28T09:33:15;22.70;;;17.00;;
1014;SDS011;8170;48.118;11.628;2023-02-28T09:34:36;22.65;;;16.08;;
1014;SDS011;8170;48.118;11.628;2023-02-28T09:35:45;24.67;;;16.35;;
1014;SDS011;8170;48.118;11.628;2023-02-28T09:37:01;22.52;;;17.27;;
1014;SDS011;8170;48.118;11.628;2023-02-28T09:38:07;25.45;;;16.95;;
1014;SDS011;8170;48.118;11.628;2023-02-28T09:39:34;24.00;;;16.23;;
1014;SDS011;8170;48.118;11.628;2023-02-28T09:41:00;22.80;;;16.60;;
1014;SDS011;8170;48.118;11.628;2023-02-28T09:42:35;21.60;;;17.10;;
1014;SDS011;8170;48.118;11.628;2023-02-28T09:43:47;23.92;;;18.10;;
1014;SDS011;8170;48.118;11.628;2023-02-28T09:45:13;32.92;;;19.90;;
1014;SDS011;8170;48.118;11.628;2023-02-28T09:46:35;22.48;;;16.50;;
1014;SDS011;8170;48.118;11.628;2023-02-28T09:48:04;22.02;;;17.38;;
1014;SDS011;8170;48.118;11.628;2023-02-28T09:49:31;27.10;;;17.90;;
1014;SDS011;8170;48.118;11.628;2023-02-28T09:50:59;26.60;;;18.08;;
1014;SDS011;8170;48.118;11.628;2023-02-28T09:52:29;23.98;;;16.80;;
1014;SDS011;8170;48.118;11.628;2023-02-28T09:53:57;20.20;;;15.02;;
1014;SDS011;8170;48.118;11.628;2023-02-28T09:55:33;21.77;;;16.52;;
1014;SDS011;8170;48.118;11.628;2023-02-28T09:57:07;19.88;;;15.98;;
1014;SDS011;8170;48.118;11.628;2023-02-28T09:58:32;27.80;;;17.42;;
1014;SDS011;8170;48.118;11.628;2023-02-28T09:59:54;22.98;;;16.90;;
1014;SDS011;8170;48.118;11.628;2023-02-28T10:01:21;22.58;;;16.92;;
1014;SDS011;8170;48.118;11.628;2023-02-28T10:02:53;24.85;;;16.27;;
1014;SDS011;8170;48.118;11.628;2023-02-28T10:04:44;21.83;;;15.55;;
1014;SDS011;8170;48.118;11.628;2023-02-28T10:06:14;21.80;;;15.82;;
1014;SDS011;8170;48.118;11.628;2023-02-28T10:07:42;24.55;;;17.90;;
1014;SDS011;8170;48.118;11.628;2023-02-28T10:09:23;22.80;;;17.38;;
1014;SDS011;8170;48.118;11.628;2023-02-28T10:10:44;20.02;;;16.30;;
1014;SDS011;8170;48.118;11.628;2023-02-28T10:12:08;24.98;;;16.70;;
1014;SDS011;8170;48.118;11.628;2023-02-28T10:13:26;17.55;;;15.15;;
1014;SDS011;8170;48.118;11.628;2023-02-28T10:14:49;21.73;;;17.60;;
1014;SDS011;8170;48.118;11.628;2023-02-28T10:16:21;22.60;;;15.48;;
1014;SDS011;8170;48.118;11.628;2023-02-28T10:17:53;23.60;;;17.45;;
1014;SDS011;8170;48.118;11.628;2023-02-28T10:19:19;22.63;;;16.08;;
1014;SDS011;8170;48.118;11.628;2023-02-28T10:20:42;21.25;;;16.55;;
1014;SDS011;8170;48.118;11.628;2023-02-28T10:22:14;20.92;;;15.88;;
1014;SDS011;8170;48.118;11.628;2023-02-28T10:23:57;24.77;;;18.63;;
1014;SDS011;8170;48.118;11.628;2023-02-28T10:25:17;17.00;;;14.35;;
1014;SDS011;8170;48.118;11.628;2023-02-28T10:26:42;27.55;;;16.10;;
1014;SDS011;8170;48.118;11.628;2023-02-28T10:28:16;28.73;;;16.88;;
1014;SDS011;8170;48.118;11.628;2023-02-28T10:29:40;20.30;;;16.13;;
1014;SDS011;8170;48.118;11.628;2023-02-28T10:30:50;20.08;;;16.13;;
1014;SDS011;8170;48.118;11.628;2023-02-28T10:31:58;17.88;;;15.93;;
1014;SDS011;8170;48.118;11.628;2023-02-28T10:33:08;20.45;;;15.98;;
1014;SDS011;8170;48.118;11.628;2023-02-28T10:34:35;19.90;;;15.77;;
1014;SDS011;8170;48.118;11.628;2023-02-28T10:35:38;20.55;;;15.68;;
1014;SDS011;8170;48.118;11.628;2023-02-28T10:36:41;21.00;;;16.85;;
1014;SDS011;8170;48.118;11.628;2023-02-28T10:37:47;20.67;;;15.98;;
1014;SDS011;8170;48.118;11.628;2023-02-28T10:38:51;20.63;;;17.40;;
1014;SDS011;8170;48.118;11.628;2023-02-28T10:39:54;19.27;;;16.65;;
1014;SDS011;8170;48.118;11.628;2023-02-28T10:41:07;18.02;;;15.40;;
1014;SDS011;8170;48.118;11.628;2023-02-28T10:42:19;18.40;;;15.13;;
1014;SDS011;8170;48.118;11.628;2023-02-28T10:43:27;20.50;;;16.17;;
1014;SDS011;8170;48.118;11.628;2023-02-28T10:44:30;20.08;;;15.48;;
1014;SDS011;8170;48.118;11.628;2023-02-28T10:45:35;18.77;;;14.88;;
1014;SDS011;8170;48.118;11.628;2023-02-28T10:46:39;20.95;;;16.58;;
1014;SDS011;8170;48.118;11.628;2023-02-28T10:47:50;22.80;;;16.45;;
1014;SDS011;8170;48.118;11.628;2023-02-28T10:49:00;19.50;;;16.35;;
1014;SDS011;8170;48.118;11.628;2023-02-28T10:50:05;20.77;;;16.60;;
1014;SDS011;8170;48.118;11.628;2023-02-28T10:51:27;18.75;;;16.17;;
1014;SDS011;8170;48.118;11.628;2023-02-28T10:52:39;19.80;;;16.08;;
1014;SDS011;8170;48.118;11.628;2023-02-28T10:53:47;19.55;;;15.93;;
1014;SDS011;8170;48.118;11.628;2023-02-28T10:55:15;21.33;;;15.98;;
1014;SDS011;8170;48.118;11.628;2023-02-28T10:56:23;28.95;;;16.23;;
1014;SDS011;8170;48.118;11.628;2023-02-28T10:57:27;21.85;;;16.00;;
1014;SDS011;8170;48.118;11.628;2023-02-28T10:58:42;23.88;;;16.85;;
1014;SDS011;8170;48.118;11.628;2023-02-28T10:59:51;19.58;;;15.63;;
1014;SDS011;8170;48.118;11.628;2023-02-28T11:00:56;19.98;;;16.45;;
1014;SDS011;8170;48.118;11.628;2023-02-28T11:02:10;23.33;;;15.02;;
1014;SDS011;8170;48.118;11.628;2023-02-28T11:03:34;23.42;;;16.75;;
1014;SDS011;8170;48.118;11.628;2023-02-28T11:04:38;19.00;;;14.90;;
1014;SDS011;8170;48.118;11.628;2023-02-28T11:05:46;22.73;;;18.02;;
1014;SDS011;8170;48.118;11.628;2023-02-28T11:06:56;19.48;;;16.27;;
1014;SDS011;8170;48.118;11.628;2023-02-28T11:08:03;20.63;;;16.27;;
1014;SDS011;8170;48.118;11.628;2023-02-28T11:09:15;22.58;;;17.35;;
1014;SDS011;8170;48.118;11.628;2023-02-28T11:10:31;19.70;;;15.40;;
1014;SDS011;8170;48.118;11.628;2023-02-28T11:11:41;19.13;;;15.95;;
1014;SDS011;8170;48.118;11.628;2023-02-28T11:12:47;20.90;;;16.42;;
1014;SDS011;8170;48.118;11.628;2023-02-28T11:13:54;19.02;;;15.82;;
1014;SDS011;8170;48.118;11.628;2023-02-28T11:15:05;22.23;;;15.30;;
1014;SDS011;8170;48.118;11.628;2023-02-28T11:16:23;20.15;;;16.50;;
1014;SDS011;8170;48.118;11.628;2023-02-28T11:17:35;20.83;;;15.10;;
1014;SDS011;8170;48.118;11.628;2023-02-28T11:18:40;21.75;;;14.25;;
1014;SDS011;8170;48.118;11.628;2023-02-28T11:19:50;20.65;;;15.45;;
1014;SDS011;8170;48.118;11.628;2023-02-28T11:20:55;19.58;;;15.23;;
1014;SDS011;8170;48.118;11.628;2023-02-28T11:22:01;20.02;;;15.38;;
1014;SDS011;8170;48.118;11.628;2023-02-28T11:23:06;24.38;;;15.07;;
1014;SDS011;8170;48.118;11.628;2023-02-28T11:24:19;24.00;;;15.90;;
1014;SDS011;8170;48.118;11.628;2023-02-28T11:25:28;20.20;;;15.80;;
1014;SDS011;8170;48.118;11.628;2023-02-28T11:26:41;20.02;;;15.80;;
1014;SDS011;8170;48.118;11.628;2023-02-28T11:27:47;19.73;;;15.65;;
1014;SDS011;8170;48.118;11.628;2023-02-28T11:28:51;19.85;;;15.60;;
1014;SDS011;8170;48.118;11.628;2023-02-28T11:30:23;17.73;;;14.75;;
1014;SDS011;8170;48.118;11.628;2023-02-28T11:31:27;19.50;;;15.80;;
1014;SDS011;8170;48.118;11.628;2023-02-28T11:32:32;17.85;;;14.82;;
1014;SDS011;8170;48.118;11.628;2023-02-28T11:33:41;20.13;;;15.55;;
1014;SDS011;8170;48.118;11.628;2023-02-28T11:34:47;21.20;;;16.77;;
1014;SDS011;8170;48.118;11.628;2023-02-28T11:36:07;20.75;;;15.82;;
1014;SDS011;8170;48.118;11.628;2023-02-28T11:37:13;22.75;;;15.27;;
1014;SDS011;8170;48.118;11.628;2023-02-28T11:38:17;25.10;;;15.88;;
1014;SDS011;8170;48.118;11.628;2023-02-28T11:39:20;19.77;;;14.52;;
1014;SDS011;8170;48.118;11.628;2023-02-28T11:40:26;19.65;;;16.23;;
1014;SDS011;8170;48.118;11.628;2023-02-28T11:41:51;27.00;;;15.35;;
1014;SDS011;8170;48.118;11.628;2023-02-28T11:43:07;21.45;;;15.65;;
1014;SDS011;8170;48.118;11.628;2023-02-28T11:44:32;26.35;;;16.50;;
1014;SDS011;8170;48.118;11.628;2023-02-28T11:45:49;20.23;;;14.73;;
1014;SDS011;8170;48.118;11.628;2023-02-28T11:47:07;18.48;;;15.40;;
1014;SDS011;8170;48.118;11.628;2023-02-28T11:48:17;20.10;;;15.68;;
1014;SDS011;8170;48.118;11.628;2023-02-28T11:49:31;19.13;;;15.35;;
1014;SDS011;8170;48.118;11.628;2023-02-28T11:50:51;17.08;;;14.20;;
1014;SDS011;8170;48.118;11.628;2023-02-28T11:52:00;19.65;;;15.63;;
1014;SDS011;8170;48.118;11.628;2023-02-28T11:53:14;19.38;;;15.23;;
1014;SDS011;8170;48.118;11.628;2023-02-28T11:54:27;21.20;;;15.52;;
1014;SDS011;8170;48.118;11.628;2023-02-28T11:55:47;18.10;;;14.70;;
1014;SDS011;8170;48.118;11.628;2023-02-28T11:56:55;18.92;;;15.50;;
1014;SDS011;8170;48.118;11.628;2023-02-28T11:58:03;18.85;;;15.38;;
1014;SDS011;8170;48.118;11.628;2023-02-28T11:59:34;17.70;;;13.93;;
1014;SDS011;8170;48.118;11.628;2023-02-28T12:00:53;16.95;;;15.20;;
1014;SDS011;8170;48.118;11.628;2023-02-28T12:02:13;17.20;;;14.90;;
1014;SDS011;8170;48.118;11.628;2023-02-28T12:03:27;19.73;;;15.05;;
1014;SDS011;8170;48.118;11.628;2023-02-28T12:04:39;18.48;;;14.45;;
1014;SDS011;8170;48.118;11.628;2023-02-28T12:06:06;17.70;;;15.00;;
1014;SDS011;8170;48.118;11.628;2023-02-28T12:07:18;18.42;;;14.30;;
1014;SDS011;8170;48.118;11.628;2023-02-28T12:08:41;20.20;;;14.57;;
1014;SDS011;8170;48.118;11.628;2023-02-28T12:09:53;19.70;;;14.65;;
1014;SDS011;8170;48.118;11.628;2023-02-28T12:11:09;17.77;;;14.38;;
1014;SDS011;8170;48.118;11.628;2023-02-28T12:12:21;18.65;;;15.45;;
1014;SDS011;8170;48.118;11.628;2023-02-28T12:13:29;21.83;;;14.93;;
1014;SDS011;8170;48.118;11.628;2023-02-28T12:14:50;20.48;;;14.73;;
1014;SDS011;8170;48.118;11.628;2023-02-28T12:16:25;17.83;;;14.70;;
1014;SDS011;8170;48.118;11.628;2023-02-28T12:17:41;17.85;;;14.30;;
1014;SDS011;8170;48.118;11.628;2023-02-28T12:19:05;15.40;;;12.98;;
1014;SDS011;8170;48.118;11.628;2023-02-28T12:21:31;15.35;;;13.75;;
1014;SDS011;8170;48.118;11.628;2023-02-28T12:22:46;17.55;;;14.25;;
1014;SDS011;8170;48.118;11.628;2023-02-28T12:23:57;18.08;;;14.93;;
1014;SDS011;8170;48.118;11.628;2023-02-28T12:25:30;17.20;;;13.95;;
1014;SDS011;8170;48.118;11.628;2023-02-28T12:26:48;17.42;;;14.45;;
1014;SDS011;8170;48.118;11.628;2023-02-28T12:27:53;18.40;;;13.77;;
1014;SDS011;8170;48.118;11.628;2023-02-28T12:28:57;19.08;;;14.75;;
1014;SDS011;8170;48.118;11.628;2023-02-28T12:30:05;18.58;;;13.65;;
1014;SDS011;8170;48.118;11.628;2023-02-28T12:31:16;19.67;;;15.27;;
1014;SDS011;8170;48.118;11.628;2023-02-28T12:32:25;19.88;;;14.23;;